Hlavní strana
METAR-TAF:

METAR-TAF

Letiště :

Blue Grass Airport

Lexington, Kentucky, Spojené státy americké

zeměpisná šířka: 38-02-27N, zeměpisná délka: 084-36-21W, výška: 298 m

Aktuální stav počasí

Zpráva byla vytvořena před 55 minutami, v 01:54 UTC
Východní vítr 3 kt
Teplota 9°C
Vlhkost vzduchu 31%
Tlak 1025 hPa
Viditelnost: 16.1 km
Jasno

METAR: KLEX 240154Z 09003KT 10SM CLR 09/M07 A3027 RMK AO2 SLP255 T00941072

Čas: 22:49 (02:49 UTC)

Předpověď počasí

Zpráva byla vytvořena před 3 hodinami a 18 minutami, v 23:31 UTC
Předpověď platná od 24 v 00 UTC do 24 v 24 UTC
vítr z různých směrů 3 kt
Viditelnost: 10 km
Polojasno ve výšce 25000 ft
Od 24 v 1100 UTC
Jihovýchodní vítr 6 kt
Viditelnost: 10 km
Oblačno až skoro zataženo ve výšce 15000 ft
Od 24 v 1800 UTC
Jihojihozápadní vítr 10 kt
Viditelnost: 10 km
Oblačno až skoro zataženo ve výšce 5000 ft

TAF: KLEX 232331Z 2400/2424 VRB03KT P6SM SCT250 FM241100 14006KT P6SM BKN150 FM241800 21010KT P6SM BKN050

Stav a předpovědi počasí z více než 4 000 letišť (zprávy METAR a TAF).

Červené a žluté tečky na mapě představují dostupné meteorologické stanice.

Když kurzor umístíte na tečku, zobrazí se název stanice.

Pak kliknutím zobrazíte stav a předpověď počasí.

Chcete-li změnit mapu, kliknutím na zelené tlačítko se znaménkem +mapu přiblížíte, kliknutím na zelené tlačítko se znaménkem – mapu oddálíte a kliknutím na zelené šipky přejdete na sousední mapy.


METAR-TAF: